Time;durP1;ratioP1;P1;durP2;ratioP2;P2;SDS_P1;SDS_P2;PMS_P1;PMS_P2;Temp;Humidity;BMP_temperature;BMP_pressure;BME280_temperature;BME280_humidity;BME280_pressure;Samples;Min_cycle;Max_cycle;Signal;HPM_P1;HPM_P2
2022/05/25 00:04:11;;;;;;;1.90;1.17;;;19.90;63.60;;;;;;10429281;28;20025;-63
2022/05/25 00:09:11;;;;;;;1.55;0.98;;;19.80;63.50;;;;;;10413754;28;20116;-61
2022/05/25 00:14:13;;;;;;;3.35;1.45;;;19.80;63.50;;;;;;10414035;28;20104;-63
2022/05/25 00:24:33;;;;;;;;;;;19.80;63.50;;;;;;10415671;28;20437;-62
2022/05/25 00:29:36;;;;;;;3.83;1.33;;;19.80;63.40;;;;;;10412310;28;19917;-63
2022/05/25 00:34:37;;;;;;;2.33;1.10;;;19.80;63.50;;;;;;10413212;28;20474;-63
2022/05/25 00:39:40;;;;;;;1.90;1.30;;;19.80;63.40;;;;;;10413116;28;20394;-62
2022/05/25 00:44:40;;;;;;;2.80;1.33;;;19.80;63.50;;;;;;10413005;28;20045;-62
2022/05/25 00:49:41;;;;;;;1.33;1.05;;;19.80;63.40;;;;;;10412761;28;20163;-61
2022/05/25 00:54:55;;;;;;;1.33;1.23;;;19.80;63.50;;;;;;10428410;28;20029;-62
2022/05/25 01:00:23;;;;;;;1.13;0.93;;;19.70;63.40;;;;;;10412834;28;20025;-62
2022/05/25 01:05:33;;;;;;;1.85;1.25;;;19.70;63.40;;;;;;10412745;28;20083;-63
2022/05/25 01:11:20;;;;;;;1.40;1.15;;;19.70;63.40;;;;;;10409424;28;20116;-63
2022/05/25 01:16:47;;;;;;;1.05;0.70;;;19.70;63.30;;;;;;10412514;28;20394;-63
2022/05/25 01:22:14;;;;;;;1.80;1.10;;;19.70;63.30;;;;;;10410959;28;20104;-62
2022/05/25 01:27:36;;;;;;;1.48;1.20;;;19.70;63.30;;;;;;10401889;28;20055;-63
2022/05/25 01:32:46;;;;;;;2.03;1.35;;;19.70;63.40;;;;;;10411865;28;20029;-63
2022/05/25 01:37:59;;;;;;;1.52;1.20;;;19.70;63.30;;;;;;10412101;28;20466;-63
2022/05/25 01:43:23;;;;;;;2.08;1.17;;;19.70;63.30;;;;;;10414753;28;20065;-63
2022/05/25 01:48:26;;;;;;;1.52;1.00;;;19.70;63.30;;;;;;10418243;28;20531;-63
2022/05/25 01:53:37;;;;;;;2.53;1.05;;;19.70;63.30;;;;;;10434479;28;20021;-63
2022/05/25 01:58:54;;;;;;;1.67;0.93;;;19.60;63.90;;;;;;10434134;28;20501;-62
2022/05/25 02:09:38;;;;;;;;;;;19.60;63.20;;;;;;10419047;28;20033;-63
2022/05/25 02:20:50;;;;;;;1.33;1.00;;;19.60;63.30;;;;;;10418739;28;20045;-63
2022/05/25 02:26:06;;;;;;;1.80;1.27;;;19.60;63.40;;;;;;10420585;28;20083;-61
2022/05/25 02:31:14;;;;;;;1.50;1.17;;;19.60;63.30;;;;;;10416551;28;20057;-61
2022/05/25 02:36:17;;;;;;;6.18;1.63;;;19.60;63.30;;;;;;10416048;28;20054;-60
2022/05/25 02:41:35;;;;;;;1.48;1.02;;;19.60;63.30;;;;;;10417460;28;20044;-61
2022/05/25 02:46:35;;;;;;;2.03;1.33;;;19.60;63.40;;;;;;10432358;28;20022;-61
2022/05/25 02:51:36;;;;;;;2.13;1.10;;;19.50;63.20;;;;;;10416777;28;20619;-61
2022/05/25 02:56:37;;;;;;;1.60;1.10;;;19.60;63.20;;;;;;10415422;28;20033;-62
2022/05/25 03:01:39;;;;;;;1.77;0.77;;;19.50;63.20;;;;;;10415456;28;20045;-60
2022/05/25 03:06:40;;;;;;;1.45;1.10;;;19.50;63.10;;;;;;10416264;28;20059;-62
2022/05/25 03:11:41;;;;;;;1.48;0.90;;;19.50;63.20;;;;;;10416173;28;20029;-62
2022/05/25 03:16:41;;;;;;;2.38;1.52;;;19.50;63.80;;;;;;10415851;28;20688;-62
2022/05/25 03:21:42;;;;;;;1.95;1.45;;;19.50;63.20;;;;;;10428474;28;20068;-62
2022/05/25 03:26:43;;;;;;;2.25;1.15;;;19.50;63.10;;;;;;10412594;28;20056;-62
2022/05/25 03:31:43;;;;;;;2.13;1.42;;;19.50;63.10;;;;;;10415503;28;20060;-62
2022/05/25 03:36:45;;;;;;;2.05;1.30;;;19.50;63.10;;;;;;10415060;28;20041;-62
2022/05/25 03:41:47;;;;;;;1.52;1.02;;;19.50;63.20;;;;;;10415202;28;20032;-62
2022/05/25 03:46:50;;;;;;;1.95;1.00;;;19.50;63.10;;;;;;10414429;28;20036;-62
2022/05/25 03:51:51;;;;;;;1.67;1.17;;;19.50;63.10;;;;;;10414919;28;20018;-62
2022/05/25 03:56:52;;;;;;;1.30;1.00;;;19.50;63.20;;;;;;10414451;28;20033;-62
2022/05/25 04:01:53;;;;;;;2.08;1.20;;;19.40;63.10;;;;;;10414431;28;20365;-62
2022/05/25 04:06:53;;;;;;;1.75;0.93;;;19.50;63.20;;;;;;10409391;28;20040;-62
2022/05/25 04:11:54;;;;;;;2.25;1.30;;;19.40;63.10;;;;;;10407767;28;20421;-62
2022/05/25 04:16:55;;;;;;;3.40;1.58;;;19.40;63.10;;;;;;10406185;28;20037;-62
2022/05/25 04:21:56;;;;;;;1.52;0.93;;;19.40;63.00;;;;;;10410487;28;20104;-61
2022/05/25 04:26:59;;;;;;;2.08;1.38;;;19.40;63.10;;;;;;10412451;28;20120;-64
2022/05/25 04:32:00;;;;;;;1.50;0.98;;;19.40;63.10;;;;;;10410725;28;20521;-61
2022/05/25 04:42:20;;;;;;;1.93;1.10;;;19.40;63.10;;;;;;10412358;28;20041;-62
2022/05/25 04:47:21;;;;;;;2.13;1.55;;;19.40;63.60;;;;;;10427890;28;20045;-64
2022/05/25 04:52:22;;;;;;;1.83;1.25;;;19.40;63.00;;;;;;10412959;28;20060;-64
2022/05/25 04:57:27;;;;;;;2.95;1.80;;;19.40;62.90;;;;;;10412127;28;20030;-61
2022/05/25 05:02:29;;;;;;;3.70;1.80;;;19.40;62.80;;;;;;10410852;28;20068;-61
2022/05/25 05:07:32;;;;;;;6.20;1.83;;;19.40;63.10;;;;;;10411180;28;20542;-60
2022/05/25 05:12:32;;;;;;;6.30;2.17;;;19.50;63.50;;;;;;10410350;28;20029;-61
2022/05/25 05:17:33;;;;;;;8.77;2.30;;;19.70;63.60;;;;;;10416365;28;20485;-59
2022/05/25 05:22:34;;;;;;;7.47;2.40;;;19.70;64.30;;;;;;10418616;28;20029;-58
2022/05/25 05:27:35;;;;;;;6.95;2.05;;;19.60;64.40;;;;;;10411365;28;20041;-60
2022/05/25 05:32:35;;;;;;;6.97;1.92;;;19.70;65.00;;;;;;10418902;28;20045;-60
2022/05/25 05:37:50;;;;;;;7.45;2.30;;;19.60;64.40;;;;;;10419115;28;20061;-61
2022/05/25 05:42:53;;;;;;;12.52;1.30;;;19.60;65.00;;;;;;10418585;28;20044;-61
2022/05/25 05:48:04;;;;;;;7.55;1.80;;;19.60;64.70;;;;;;10434250;28;20351;-61
2022/05/25 05:53:07;;;;;;;8.43;2.75;;;19.60;64.80;;;;;;10419387;28;20030;-63
2022/05/25 05:58:08;;;;;;;4.35;1.17;;;19.50;65.20;;;;;;10417718;28;20538;-63
2022/05/25 06:03:09;;;;;;;8.88;1.75;;;19.50;64.90;;;;;;10417436;28;20063;-61
2022/05/25 06:08:14;;;;;;;3.38;1.50;;;19.40;64.90;;;;;;10416091;28;20037;-63
2022/05/25 06:13:15;;;;;;;11.75;2.55;;;19.40;64.70;;;;;;10406081;28;20033;-64
2022/05/25 06:23:35;;;;;;;7.80;1.98;;;19.40;64.90;;;;;;10411923;28;20041;-66
2022/05/25 06:28:36;;;;;;;5.10;1.92;;;19.40;64.80;;;;;;10416268;28;20033;-66
2022/05/25 06:33:38;;;;;;;6.93;2.17;;;19.40;64.90;;;;;;10415876;28;20077;-66
2022/05/25 06:38:39;;;;;;;5.30;1.60;;;19.40;64.90;;;;;;10416634;28;20029;-66
2022/05/25 06:43:41;;;;;;;5.40;1.58;;;19.40;64.60;;;;;;10416672;28;20120;-63
2022/05/25 06:48:42;;;;;;;7.47;2.30;;;19.40;64.40;;;;;;10416166;28;20040;-65
2022/05/25 06:53:43;;;;;;;5.55;1.77;;;19.40;64.50;;;;;;10415919;28;20028;-64
2022/05/25 06:58:44;;;;;;;6.25;2.00;;;19.40;64.50;;;;;;10413798;28;20378;-64
2022/05/25 07:03:44;;;;;;;9.48;2.55;;;19.30;64.50;;;;;;10411304;28;20474;-64
2022/05/25 07:08:46;;;;;;;6.45;2.88;;;19.30;64.80;;;;;;10414350;28;20132;-62
2022/05/25 07:13:47;;;;;;;4.50;2.28;;;19.30;65.10;;;;;;10414412;28;20370;-62
2022/05/25 07:18:48;;;;;;;5.53;2.15;;;19.40;65.20;;;;;;10413181;28;20477;-61
2022/05/25 07:23:51;;;;;;;5.70;2.17;;;19.40;65.30;;;;;;10415796;28;20022;-63
2022/05/25 07:28:52;;;;;;;3.97;2.00;;;19.40;65.00;;;;;;10412602;28;20087;-64
2022/05/25 07:34:04;;;;;;;4.28;2.10;;;19.40;64.90;;;;;;10411377;28;20041;-63
2022/05/25 07:39:11;;;;;;;7.30;2.58;;;19.40;64.90;;;;;;10407331;28;20025;-63
2022/05/25 07:44:25;;;;;;;3.40;2.05;;;19.40;64.90;;;;;;10413440;28;20044;-63
2022/05/25 07:49:26;;;;;;;7.00;1.98;;;19.30;64.90;;;;;;10413339;28;20409;-61
2022/05/25 07:54:27;;;;;;;5.90;2.60;;;19.40;65.00;;;;;;10413678;28;20033;-63
2022/05/25 07:59:28;;;;;;;3.38;2.20;;;19.30;64.90;;;;;;10412574;28;20029;-63
2022/05/25 08:10:08;;;;;;;5.40;2.42;;;19.40;65.10;;;;;;10413391;28;20037;-63
2022/05/25 08:15:11;;;;;;;3.75;2.00;;;19.40;64.90;;;;;;10428508;28;20046;-63
2022/05/25 08:20:13;;;;;;;5.65;2.30;;;19.30;64.80;;;;;;10409263;28;20068;-63
2022/05/25 08:25:16;;;;;;;3.58;2.25;;;19.30;65.10;;;;;;10414439;28;20033;-63
2022/05/25 08:30:20;;;;;;;2.72;2.03;;;19.30;64.80;;;;;;10413512;28;20022;-64
2022/05/25 08:35:21;;;;;;;5.13;2.42;;;19.30;65.20;;;;;;10413091;28;20038;-63
2022/05/25 08:40:24;;;;;;;3.10;2.13;;;19.40;65.40;;;;;;10413229;28;20034;-63
2022/05/25 08:45:36;;;;;;;5.53;2.70;;;19.40;65.40;;;;;;10412529;28;20042;-63
2022/05/25 08:50:37;;;;;;;5.00;2.63;;;19.40;65.30;;;;;;10406698;28;20025;-63
2022/05/25 08:56:44;;;;;;;4.38;2.85;;;19.50;65.30;;;;;;10426189;28;20505;-63
2022/05/25 09:02:38;;;;;;;4.25;2.85;;;19.40;65.20;;;;;;10417362;28;20088;-62
2022/05/25 09:07:51;;;;;;;4.93;2.97;;;19.40;65.40;;;;;;10402021;28;20045;-63
2022/05/25 09:13:08;;;;;;;3.38;2.60;;;19.40;65.30;;;;;;10426285;28;20428;-63
2022/05/25 09:18:17;;;;;;;5.47;2.95;;;19.40;65.20;;;;;;10423051;28;20038;-63
2022/05/25 09:23:18;;;;;;;4.23;3.43;;;19.40;65.30;;;;;;10427598;28;20037;-63
2022/05/25 09:28:25;;;;;;;7.28;3.05;;;19.40;65.40;;;;;;10440955;28;20090;-63
2022/05/25 09:33:41;;;;;;;3.65;3.30;;;19.40;65.40;;;;;;10415611;28;20409;-62
2022/05/25 09:38:53;;;;;;;4.63;2.85;;;19.40;65.40;;;;;;10424230;28;20052;-62
2022/05/25 09:43:58;;;;;;;10.27;4.47;;;19.50;65.30;;;;;;10424951;28;20567;-66
2022/05/25 09:49:04;;;;;;;5.95;4.05;;;19.50;65.30;;;;;;10424679;28;20041;-63
2022/05/25 09:54:30;;;;;;;8.30;5.25;;;19.50;65.40;;;;;;10425470;28;20033;-65
2022/05/25 10:00:00;;;;;;;13.40;8.48;;;19.40;65.40;;;;;;10424179;28;20494;-63
2022/05/25 10:05:33;;;;;;;11.88;8.73;;;19.50;64.60;;;;;;10417034;28;20045;-63
2022/05/25 10:10:50;;;;;;;11.43;7.57;;;19.50;64.50;;;;;;10417174;28;20497;-63
2022/05/25 10:15:51;;;;;;;9.70;7.63;;;19.50;64.60;;;;;;10418507;28;20389;-63
2022/05/25 10:20:52;;;;;;;14.45;7.95;;;19.50;64.80;;;;;;10429782;28;20068;-63
2022/05/25 10:26:43;;;;;;;12.30;7.30;;;19.50;64.80;;;;;;10417885;28;20494;-62
2022/05/25 10:37:06;;;;;;;8.05;7.13;;;19.50;64.80;;;;;;10412810;28;20046;-62
2022/05/25 10:42:46;;;;;;;11.27;8.00;;;19.50;64.90;;;;;;10406347;28;20541;-62
2022/05/25 10:47:57;;;;;;;10.82;8.10;;;19.50;65.10;;;;;;10417011;28;20029;-62
2022/05/25 10:53:15;;;;;;;8.68;7.20;;;19.50;65.10;;;;;;10416734;28;20048;-62
2022/05/25 10:58:40;;;;;;;8.05;6.60;;;19.50;65.00;;;;;;10416622;28;20070;-62
2022/05/25 11:04:28;;;;;;;8.73;6.70;;;19.50;65.10;;;;;;10416587;28;20029;-62
2022/05/25 11:10:22;;;;;;;8.50;7.20;;;19.50;65.10;;;;;;10413069;28;20037;-62
2022/05/25 11:15:47;;;;;;;7.22;6.28;;;19.60;65.20;;;;;;10414439;28;20040;-63
2022/05/25 11:21:18;;;;;;;7.20;6.50;;;19.60;65.10;;;;;;10415213;28;20437;-62
2022/05/25 11:26:45;;;;;;;9.38;6.55;;;19.60;64.80;;;;;;10402865;28;20766;-63
2022/05/25 11:32:01;;;;;;;8.02;6.45;;;19.70;64.80;;;;;;10415376;28;20060;-62
2022/05/25 11:37:07;;;;;;;7.65;6.40;;;19.60;64.90;;;;;;10411505;28;20086;-62
2022/05/25 11:42:17;;;;;;;6.57;5.57;;;19.60;65.00;;;;;;10409395;28;20045;-63
2022/05/25 11:48:06;;;;;;;6.85;5.68;;;19.60;65.10;;;;;;10419877;28;20041;-64
2022/05/25 11:53:27;;;;;;;7.50;5.82;;;19.60;65.20;;;;;;10412609;28;20417;-63
2022/05/25 11:59:11;;;;;;;7.45;6.03;;;19.50;65.10;;;;;;10413137;28;20071;-64
2022/05/25 12:04:29;;;;;;;6.25;5.65;;;19.50;65.10;;;;;;10414326;28;20033;-63
2022/05/25 12:10:00;;;;;;;6.93;4.60;;;19.60;65.00;;;;;;10413886;28;20065;-64
2022/05/25 12:15:29;;;;;;;7.45;5.35;;;19.60;64.90;;;;;;10428140;28;20034;-63
2022/05/25 12:20:47;;;;;;;5.50;4.90;;;19.70;64.90;;;;;;10413672;28;20091;-65
2022/05/25 12:25:56;;;;;;;6.50;5.03;;;19.70;64.60;;;;;;10412791;28;20061;-65
2022/05/25 12:31:02;;;;;;;8.00;5.20;;;19.60;64.40;;;;;;10426799;28;20052;-65
2022/05/25 12:36:08;;;;;;;8.25;4.50;;;19.60;64.70;;;;;;10408692;28;20077;-65
2022/05/25 12:41:31;;;;;;;5.95;4.53;;;19.60;64.60;;;;;;10409590;28;20056;-66
2022/05/25 12:52:38;;;;;;;5.50;4.70;;;19.60;64.90;;;;;;10424608;28;20038;-65
2022/05/25 12:57:57;;;;;;;7.88;4.85;;;19.60;64.90;;;;;;10411729;28;20033;-66
2022/05/25 13:03:21;;;;;;;5.30;4.07;;;19.60;65.10;;;;;;10411854;28;20041;-65
2022/05/25 13:08:59;;;;;;;4.40;4.00;;;19.50;65.10;;;;;;10412169;28;20087;-65
2022/05/25 13:14:28;;;;;;;5.88;4.20;;;19.50;65.20;;;;;;10412156;28;20112;-65
2022/05/25 13:19:29;;;;;;;4.70;4.13;;;19.50;65.30;;;;;;10412090;28;20034;-66
2022/05/25 13:25:02;;;;;;;5.97;3.75;;;19.50;65.20;;;;;;10413366;28;20382;-66
2022/05/25 13:30:39;;;;;;;4.78;3.75;;;19.50;65.20;;;;;;10426886;28;20406;-66
2022/05/25 13:36:12;;;;;;;4.70;3.90;;;19.50;65.00;;;;;;10425970;28;20401;-64
2022/05/25 13:41:22;;;;;;;6.13;3.88;;;19.60;64.90;;;;;;10419136;28;20433;-66
2022/05/25 13:46:52;;;;;;;4.43;3.67;;;19.50;65.00;;;;;;10419302;28;20029;-64
2022/05/25 13:52:31;;;;;;;4.05;3.63;;;19.50;65.20;;;;;;10418790;28;20060;-65
2022/05/25 13:57:51;;;;;;;4.60;3.55;;;19.50;65.20;;;;;;10392852;28;20037;-66
2022/05/25 14:03:18;;;;;;;5.45;3.50;;;19.50;65.40;;;;;;10418903;28;20030;-65
2022/05/25 14:14:00;;;;;;;4.20;3.40;;;19.50;65.30;;;;;;10418441;28;20432;-66
2022/05/25 14:19:05;;;;;;;3.80;3.40;;;19.50;65.30;;;;;;10414875;28;20033;-65
2022/05/25 14:24:14;;;;;;;3.83;3.28;;;19.50;65.20;;;;;;10418955;28;20033;-65
2022/05/25 14:29:18;;;;;;;5.35;3.10;;;19.50;65.20;;;;;;10415503;28;20037;-65
2022/05/25 14:34:23;;;;;;;4.43;3.35;;;19.60;65.30;;;;;;10405692;28;20548;-64
2022/05/25 14:39:33;;;;;;;11.70;3.10;;;19.50;65.30;;;;;;10399932;28;20466;-67
2022/05/25 14:44:55;;;;;;;;;;;19.60;64.50;;;;;;10412433;28;20025;-65
2022/05/25 14:50:22;;;;;;;15.23;3.83;;;19.80;64.60;;;;;;10408744;28;19956;-66
2022/05/25 14:55:33;;;;;;;16.50;5.22;;;19.70;64.80;;;;;;10426382;28;20053;-65
2022/05/25 15:00:43;;;;;;;12.07;3.70;;;19.70;64.80;;;;;;10413986;28;20034;-62
2022/05/25 15:05:47;;;;;;;9.95;3.97;;;19.80;64.50;;;;;;10413643;28;20544;-65
2022/05/25 15:10:48;;;;;;;9.32;3.10;;;19.80;64.30;;;;;;10411881;28;20428;-61
2022/05/25 15:21:11;;;;;;;18.77;3.97;;;19.90;64.30;;;;;;10412424;28;20045;-62
2022/05/25 15:26:21;;;;;;;14.85;3.50;;;19.90;64.10;;;;;;10413737;28;20026;-62
2022/05/25 15:31:22;;;;;;;11.05;3.50;;;19.90;64.10;;;;;;10416317;28;20061;-64
2022/05/25 15:36:22;;;;;;;10.52;2.97;;;19.90;64.10;;;;;;10412859;28;20077;-63
2022/05/25 15:41:23;;;;;;;18.15;5.63;;;19.80;64.40;;;;;;10412168;28;20549;-61
2022/05/25 15:46:25;;;;;;;19.63;4.07;;;19.80;65.20;;;;;;10413064;28;20029;-64
2022/05/25 15:51:33;;;;;;;29.92;5.32;;;19.80;64.50;;;;;;10427551;28;20077;-60
2022/05/25 15:56:34;;;;;;;30.17;5.93;;;19.70;65.50;;;;;;10412863;28;20242;-62
2022/05/25 16:01:38;;;;;;;18.83;4.32;;;19.70;65.80;;;;;;10394779;28;20040;-62
2022/05/25 16:06:39;;;;;;;14.07;3.35;;;19.70;65.70;;;;;;10409183;28;20048;-61
2022/05/25 16:11:59;;;;;;;16.88;3.60;;;19.90;65.60;;;;;;10411848;28;20036;-61
2022/05/25 16:17:00;;;;;;;13.27;3.63;;;20.10;65.40;;;;;;10410205;28;20116;-61
2022/05/25 16:22:01;;;;;;;19.58;3.47;;;20.20;64.60;;;;;;10411272;28;20151;-62
2022/05/25 16:27:03;;;;;;;24.50;4.32;;;20.20;66.30;;;;;;10413300;28;20067;-63
2022/05/25 16:32:04;;;;;;;20.17;3.85;;;20.20;66.60;;;;;;10413549;28;20025;-60
2022/05/25 16:37:07;;;;;;;12.18;3.05;;;20.20;66.70;;;;;;10406564;28;20126;-62
2022/05/25 16:42:08;;;;;;;13.48;3.50;;;20.20;66.50;;;;;;10401105;28;20076;-62
2022/05/25 16:47:09;;;;;;;13.23;3.95;;;20.20;66.60;;;;;;10412671;28;20611;-61
2022/05/25 16:52:10;;;;;;;12.02;3.22;;;20.20;66.50;;;;;;10411853;28;20028;-63
2022/05/25 16:57:10;;;;;;;12.93;3.10;;;20.10;66.90;;;;;;10411429;28;20091;-64
2022/05/25 17:02:11;;;;;;;11.20;2.83;;;20.10;66.90;;;;;;10412347;28;20108;-63
2022/05/25 17:07:12;;;;;;;7.65;2.90;;;20.00;67.30;;;;;;10406440;28;20155;-63
2022/05/25 17:12:13;;;;;;;7.82;2.60;;;19.90;66.80;;;;;;10414906;28;20037;-64
2022/05/25 17:17:14;;;;;;;6.68;2.17;;;19.90;66.40;;;;;;10417206;28;20038;-64
2022/05/25 17:22:15;;;;;;;7.97;2.38;;;19.90;66.60;;;;;;10412368;28;20127;-66
2022/05/25 17:27:16;;;;;;;12.93;3.00;;;19.90;66.40;;;;;;10419369;28;20034;-62
2022/05/25 17:32:18;;;;;;;6.30;2.67;;;19.90;66.70;;;;;;10418471;28;20025;-64
2022/05/25 17:42:38;;;;;;;10.82;1.77;;;19.80;66.00;;;;;;10418421;28;20470;-65
2022/05/25 17:47:39;;;;;;;6.05;2.22;;;19.80;65.60;;;;;;10418338;28;20053;-64
2022/05/25 17:52:40;;;;;;;9.43;2.55;;;19.80;65.80;;;;;;10413555;28;20037;-61
2022/05/25 17:57:41;;;;;;;8.05;2.10;;;19.90;65.50;;;;;;10417274;28;20397;-61
2022/05/25 18:02:42;;;;;;;5.95;2.03;;;19.90;65.60;;;;;;10416247;28;20056;-61
2022/05/25 18:07:42;;;;;;;5.57;1.85;;;19.90;65.70;;;;;;10418814;28;20429;-61
2022/05/25 18:12:44;;;;;;;6.10;2.28;;;19.80;65.70;;;;;;10417836;28;20028;-62
2022/05/25 18:17:53;;;;;;;9.88;1.98;;;19.80;65.60;;;;;;10422412;28;20441;-61
2022/05/25 18:22:55;;;;;;;;;;;19.80;65.60;;;;;;10411053;28;20029;-62
2022/05/25 18:27:57;;;;;;;7.13;1.98;;;19.90;65.60;;;;;;10404252;28;19923;-60
2022/05/25 18:33:00;;;;;;;6.53;1.67;;;19.80;65.40;;;;;;10416899;28;20055;-59
2022/05/25 18:38:01;;;;;;;4.97;1.48;;;19.80;65.40;;;;;;10414745;28;20029;-58
2022/05/25 18:43:05;;;;;;;6.38;2.33;;;19.80;65.50;;;;;;10415656;28;20029;-59
2022/05/25 18:48:06;;;;;;;6.30;1.73;;;19.80;65.50;;;;;;10414152;28;20040;-59
2022/05/25 18:53:07;;;;;;;7.28;1.52;;;19.80;65.50;;;;;;10415099;28;20037;-64
2022/05/25 18:58:08;;;;;;;4.85;1.83;;;19.80;65.50;;;;;;10416875;28;20068;-63
2022/05/25 19:03:08;;;;;;;4.13;1.50;;;19.70;65.40;;;;;;10399144;28;20484;-63
2022/05/25 19:08:09;;;;;;;8.43;2.05;;;19.70;65.40;;;;;;10416302;28;20071;-63
2022/05/25 19:13:11;;;;;;;5.38;1.80;;;19.70;65.40;;;;;;10413867;28;20056;-63
2022/05/25 19:18:12;;;;;;;4.45;1.33;;;19.70;65.30;;;;;;10413894;28;20028;-64
2022/05/25 19:23:31;;;;;;;4.30;1.65;;;19.70;65.40;;;;;;10414644;28;20033;-63
2022/05/25 19:28:32;;;;;;;3.42;1.30;;;19.70;65.40;;;;;;10412077;28;20537;-64
2022/05/25 19:33:33;;;;;;;5.85;1.55;;;19.60;65.10;;;;;;10412059;28;20053;-63
2022/05/25 19:38:38;;;;;;;4.88;1.50;;;19.60;65.30;;;;;;10415278;28;20032;-63
2022/05/25 19:43:57;;;;;;;6.32;1.77;;;19.60;65.30;;;;;;10415116;28;20099;-62
2022/05/25 19:48:59;;;;;;;2.42;1.17;;;19.60;65.30;;;;;;10424353;28;20135;-63
2022/05/25 19:54:00;;;;;;;2.92;1.20;;;19.60;65.40;;;;;;10414523;28;20061;-64
2022/05/25 19:59:01;;;;;;;2.97;1.17;;;19.60;65.30;;;;;;10412780;28;20128;-64
2022/05/25 20:04:01;;;;;;;4.03;1.00;;;19.60;65.30;;;;;;10414658;28;20434;-63
2022/05/25 20:09:02;;;;;;;3.80;1.58;;;19.60;65.30;;;;;;10413033;28;20068;-64
2022/05/25 20:14:06;;;;;;;5.38;1.20;;;19.60;65.20;;;;;;10413899;28;20096;-64
2022/05/25 20:19:07;;;;;;;5.38;1.40;;;19.60;65.20;;;;;;10411411;28;20543;-65
2022/05/25 20:24:08;;;;;;;4.43;1.58;;;19.60;65.30;;;;;;10415403;28;20021;-63
2022/05/25 20:29:08;;;;;;;4.03;1.17;;;19.60;65.30;;;;;;10412542;28;20055;-64
2022/05/25 20:34:09;;;;;;;2.88;1.15;;;19.60;65.30;;;;;;10413429;28;20124;-63
2022/05/25 20:39:10;;;;;;;2.67;1.05;;;19.60;65.30;;;;;;10413269;28;20115;-64
2022/05/25 20:44:12;;;;;;;3.35;1.02;;;19.50;65.30;;;;;;10413415;28;20079;-64
2022/05/25 20:49:12;;;;;;;3.20;1.35;;;19.60;65.30;;;;;;10412424;28;20029;-64
2022/05/25 20:54:14;;;;;;;2.75;0.80;;;19.50;65.20;;;;;;10411605;28;20029;-63
2022/05/25 20:59:15;;;;;;;3.45;1.60;;;19.50;65.20;;;;;;10413107;28;20025;-63
2022/05/25 21:04:16;;;;;;;1.48;0.88;;;19.50;65.20;;;;;;10412786;28;20056;-64
2022/05/25 21:09:16;;;;;;;3.50;1.00;;;19.50;65.20;;;;;;10411587;28;20022;-63
2022/05/25 21:14:19;;;;;;;2.30;1.00;;;19.50;65.20;;;;;;10412619;28;20032;-63
2022/05/25 21:19:20;;;;;;;1.70;1.20;;;19.50;65.20;;;;;;10411696;28;20083;-64
2022/05/25 21:24:20;;;;;;;2.22;0.80;;;19.50;65.10;;;;;;10412337;28;20033;-63
2022/05/25 21:29:21;;;;;;;2.28;1.10;;;19.50;65.20;;;;;;10412201;28;20454;-63
2022/05/25 21:34:22;;;;;;;1.92;0.77;;;19.50;65.70;;;;;;10411754;28;20371;-64
2022/05/25 21:39:24;;;;;;;2.33;1.38;;;19.50;65.10;;;;;;10412238;28;20080;-65
2022/05/25 21:44:25;;;;;;;3.15;0.98;;;19.50;65.10;;;;;;10411868;28;20103;-65
2022/05/25 21:54:44;;;;;;;1.95;0.90;;;19.50;65.20;;;;;;10411898;28;20033;-64
2022/05/25 21:59:46;;;;;;;3.22;1.10;;;19.50;65.10;;;;;;10431819;28;20510;-64
2022/05/25 22:04:48;;;;;;;1.73;0.82;;;19.50;65.20;;;;;;10417760;28;20034;-64
2022/05/25 22:09:49;;;;;;;2.15;0.80;;;19.50;65.20;;;;;;10434312;28;20033;-63
2022/05/25 22:14:50;;;;;;;2.03;0.90;;;19.50;65.20;;;;;;10418525;28;20105;-64
2022/05/25 22:19:50;;;;;;;1.73;1.10;;;19.50;65.10;;;;;;10417034;28;20116;-64
2022/05/25 22:24:51;;;;;;;1.38;0.80;;;19.50;65.10;;;;;;10419164;28;20116;-64
2022/05/25 22:29:52;;;;;;;1.67;1.00;;;19.50;65.00;;;;;;10417813;28;20080;-63
2022/05/25 22:34:52;;;;;;;2.00;0.95;;;19.50;65.10;;;;;;10400058;28;20113;-64
2022/05/25 22:39:53;;;;;;;1.45;0.90;;;19.40;65.00;;;;;;10417942;28;20485;-63
2022/05/25 22:44:54;;;;;;;1.70;0.98;;;19.50;65.00;;;;;;10417259;28;20025;-63
2022/05/25 22:49:54;;;;;;;2.60;0.82;;;19.40;65.00;;;;;;10417312;28;20112;-64
2022/05/25 22:54:55;;;;;;;1.90;0.73;;;19.40;65.00;;;;;;10416463;28;20393;-63
2022/05/25 22:59:56;;;;;;;1.50;0.70;;;19.40;65.00;;;;;;10417006;28;20033;-64
2022/05/25 23:04:57;;;;;;;2.13;0.90;;;19.40;65.00;;;;;;10415640;28;20140;-63
2022/05/25 23:09:58;;;;;;;1.58;0.95;;;19.40;65.00;;;;;;10415765;28;20478;-63
2022/05/25 23:14:58;;;;;;;1.67;0.90;;;19.40;65.00;;;;;;10416453;28;20029;-64
2022/05/25 23:19:59;;;;;;;3.28;1.20;;;19.50;65.00;;;;;;10415638;28;20500;-64
2022/05/25 23:25:03;;;;;;;1.65;1.10;;;19.40;65.00;;;;;;10419510;28;20126;-63
2022/05/25 23:30:09;;;;;;;1.63;0.95;;;19.40;65.00;;;;;;10415484;28;20576;-63
2022/05/25 23:35:14;;;;;;;1.67;1.20;;;19.40;65.10;;;;;;10413896;28;20486;-63
2022/05/25 23:40:15;;;;;;;3.42;1.00;;;19.40;65.10;;;;;;10415628;28;20021;-63
2022/05/25 23:45:16;;;;;;;1.73;1.13;;;19.40;65.20;;;;;;10414998;28;20029;-63
2022/05/25 23:50:17;;;;;;;3.00;1.20;;;19.40;65.10;;;;;;10413521;28;20084;-63
2022/05/25 23:55:18;;;;;;;2.47;0.82;;;19.40;65.00;;;;;;10414823;28;20327;-64
